sensor_id;sensor_type;location;lat;lon;timestamp;temperature;humidity
17659;DHT22;8948;51.534;8.262;2023-09-30T00:02:20;15.50;69.30
17659;DHT22;8948;51.534;8.262;2023-09-30T00:07:21;15.50;70.40
17659;DHT22;8948;51.534;8.262;2023-09-30T00:12:22;15.60;70.00
17659;DHT22;8948;51.534;8.262;2023-09-30T00:17:23;15.70;69.80
17659;DHT22;8948;51.534;8.262;2023-09-30T00:22:23;15.70;70.90
17659;DHT22;8948;51.534;8.262;2023-09-30T00:27:24;15.50;71.60
17659;DHT22;8948;51.534;8.262;2023-09-30T00:32:24;15.50;71.70
17659;DHT22;8948;51.534;8.262;2023-09-30T00:37:25;15.50;72.20
17659;DHT22;8948;51.534;8.262;2023-09-30T00:42:26;15.50;72.50
17659;DHT22;8948;51.534;8.262;2023-09-30T00:47:27;15.60;71.90
17659;DHT22;8948;51.534;8.262;2023-09-30T00:52:28;15.70;71.30
17659;DHT22;8948;51.534;8.262;2023-09-30T00:57:29;15.80;71.10
17659;DHT22;8948;51.534;8.262;2023-09-30T01:02:30;15.60;71.80
17659;DHT22;8948;51.534;8.262;2023-09-30T01:07:31;15.60;71.80
17659;DHT22;8948;51.534;8.262;2023-09-30T01:12:32;15.60;71.40
17659;DHT22;8948;51.534;8.262;2023-09-30T01:17:32;15.60;71.40
17659;DHT22;8948;51.534;8.262;2023-09-30T01:22:33;15.50;71.30
17659;DHT22;8948;51.534;8.262;2023-09-30T01:27:34;15.40;71.90
17659;DHT22;8948;51.534;8.262;2023-09-30T01:32:35;15.20;72.20
17659;DHT22;8948;51.534;8.262;2023-09-30T01:37:36;15.30;71.50
17659;DHT22;8948;51.534;8.262;2023-09-30T01:42:37;15.20;72.10
17659;DHT22;8948;51.534;8.262;2023-09-30T01:47:37;15.10;72.10
17659;DHT22;8948;51.534;8.262;2023-09-30T01:52:38;15.20;71.80
17659;DHT22;8948;51.534;8.262;2023-09-30T01:57:39;15.10;72.60
17659;DHT22;8948;51.534;8.262;2023-09-30T02:02:39;15.00;73.20
17659;DHT22;8948;51.534;8.262;2023-09-30T02:07:40;15.10;72.40
17659;DHT22;8948;51.534;8.262;2023-09-30T02:12:41;15.00;73.10
17659;DHT22;8948;51.534;8.262;2023-09-30T02:17:42;15.00;73.10
17659;DHT22;8948;51.534;8.262;2023-09-30T02:22:46;15.00;72.40
17659;DHT22;8948;51.534;8.262;2023-09-30T02:27:49;15.00;72.20
17659;DHT22;8948;51.534;8.262;2023-09-30T02:32:50;14.80;73.20
17659;DHT22;8948;51.534;8.262;2023-09-30T02:37:50;14.70;73.70
17659;DHT22;8948;51.534;8.262;2023-09-30T02:42:52;14.50;74.30
17659;DHT22;8948;51.534;8.262;2023-09-30T02:47:52;14.50;74.70
17659;DHT22;8948;51.534;8.262;2023-09-30T02:52:53;14.70;73.50
17659;DHT22;8948;51.534;8.262;2023-09-30T02:57:54;14.70;73.00
17659;DHT22;8948;51.534;8.262;2023-09-30T03:02:56;14.70;73.50
17659;DHT22;8948;51.534;8.262;2023-09-30T03:07:57;14.70;72.90
17659;DHT22;8948;51.534;8.262;2023-09-30T03:12:57;14.50;74.40
17659;DHT22;8948;51.534;8.262;2023-09-30T03:18:04;14.30;75.10
17659;DHT22;8948;51.534;8.262;2023-09-30T03:23:06;14.50;79.70
17659;DHT22;8948;51.534;8.262;2023-09-30T03:28:06;15.10;79.50
17659;DHT22;8948;51.534;8.262;2023-09-30T03:33:07;15.40;74.50
17659;DHT22;8948;51.534;8.262;2023-09-30T03:38:08;15.50;72.70
17659;DHT22;8948;51.534;8.262;2023-09-30T03:43:10;15.50;74.30
17659;DHT22;8948;51.534;8.262;2023-09-30T03:48:11;15.60;74.10
17659;DHT22;8948;51.534;8.262;2023-09-30T03:53:11;15.60;74.00
17659;DHT22;8948;51.534;8.262;2023-09-30T03:58:12;15.60;73.50
17659;DHT22;8948;51.534;8.262;2023-09-30T04:03:13;15.60;72.60
17659;DHT22;8948;51.534;8.262;2023-09-30T04:08:13;15.70;73.40
17659;DHT22;8948;51.534;8.262;2023-09-30T04:13:15;15.80;72.80
17659;DHT22;8948;51.534;8.262;2023-09-30T04:18:17;15.80;72.70
17659;DHT22;8948;51.534;8.262;2023-09-30T04:23:20;15.50;69.30
17659;DHT22;8948;51.534;8.262;2023-09-30T04:28:22;15.10;70.20
17659;DHT22;8948;51.534;8.262;2023-09-30T04:33:22;14.80;71.40
17659;DHT22;8948;51.534;8.262;2023-09-30T04:38:25;14.60;72.20
17659;DHT22;8948;51.534;8.262;2023-09-30T04:43:26;14.50;71.80
17659;DHT22;8948;51.534;8.262;2023-09-30T04:48:29;14.30;72.80
17659;DHT22;8948;51.534;8.262;2023-09-30T04:53:30;14.30;72.90
17659;DHT22;8948;51.534;8.262;2023-09-30T04:58:32;14.10;73.80
17659;DHT22;8948;51.534;8.262;2023-09-30T05:03:32;14.10;73.00
17659;DHT22;8948;51.534;8.262;2023-09-30T05:08:34;14.00;73.30
17659;DHT22;8948;51.534;8.262;2023-09-30T05:13:34;14.00;73.60
17659;DHT22;8948;51.534;8.262;2023-09-30T05:18:35;13.90;73.90
17659;DHT22;8948;51.534;8.262;2023-09-30T05:23:37;14.00;72.90
17659;DHT22;8948;51.534;8.262;2023-09-30T05:28:38;13.90;72.60
17659;DHT22;8948;51.534;8.262;2023-09-30T05:33:40;13.90;72.30
17659;DHT22;8948;51.534;8.262;2023-09-30T05:38:40;13.80;72.30
17659;DHT22;8948;51.534;8.262;2023-09-30T05:43:42;13.80;72.10
17659;DHT22;8948;51.534;8.262;2023-09-30T05:48:44;13.80;72.70
17659;DHT22;8948;51.534;8.262;2023-09-30T05:53:44;13.70;74.70
17659;DHT22;8948;51.534;8.262;2023-09-30T05:58:47;13.70;73.90
17659;DHT22;8948;51.534;8.262;2023-09-30T06:03:48;13.70;75.30
17659;DHT22;8948;51.534;8.262;2023-09-30T06:08:48;13.70;75.30
17659;DHT22;8948;51.534;8.262;2023-09-30T06:13:52;13.70;76.20
17659;DHT22;8948;51.534;8.262;2023-09-30T06:18:55;14.00;77.30
17659;DHT22;8948;51.534;8.262;2023-09-30T06:23:56;14.60;78.50
17659;DHT22;8948;51.534;8.262;2023-09-30T06:28:57;15.20;74.40
17659;DHT22;8948;51.534;8.262;2023-09-30T06:33:58;15.30;70.70
17659;DHT22;8948;51.534;8.262;2023-09-30T06:39:00;14.90;72.20
17659;DHT22;8948;51.534;8.262;2023-09-30T06:44:03;14.90;72.00
17659;DHT22;8948;51.534;8.262;2023-09-30T06:49:03;15.00;72.80
17659;DHT22;8948;51.534;8.262;2023-09-30T06:54:05;15.20;72.40
17659;DHT22;8948;51.534;8.262;2023-09-30T06:59:06;15.30;72.40
17659;DHT22;8948;51.534;8.262;2023-09-30T07:04:07;15.50;72.40
17659;DHT22;8948;51.534;8.262;2023-09-30T07:09:08;15.40;72.00
17659;DHT22;8948;51.534;8.262;2023-09-30T07:14:10;15.50;71.30
17659;DHT22;8948;51.534;8.262;2023-09-30T07:19:11;15.70;71.60
17659;DHT22;8948;51.534;8.262;2023-09-30T07:24:12;15.80;71.40
17659;DHT22;8948;51.534;8.262;2023-09-30T07:29:12;15.90;71.50
17659;DHT22;8948;51.534;8.262;2023-09-30T07:34:13;15.90;71.20
17659;DHT22;8948;51.534;8.262;2023-09-30T07:39:14;16.10;70.30
17659;DHT22;8948;51.534;8.262;2023-09-30T07:44:14;16.20;69.60
17659;DHT22;8948;51.534;8.262;2023-09-30T07:49:15;16.20;70.90
17659;DHT22;8948;51.534;8.262;2023-09-30T07:54:16;16.30;70.90
17659;DHT22;8948;51.534;8.262;2023-09-30T07:59:17;16.40;70.40
17659;DHT22;8948;51.534;8.262;2023-09-30T08:04:18;16.60;70.70
17659;DHT22;8948;51.534;8.262;2023-09-30T08:09:19;16.80;68.20
17659;DHT22;8948;51.534;8.262;2023-09-30T08:14:20;17.20;67.40
17659;DHT22;8948;51.534;8.262;2023-09-30T08:19:20;17.40;66.80
17659;DHT22;8948;51.534;8.262;2023-09-30T08:24:21;17.40;65.30
17659;DHT22;8948;51.534;8.262;2023-09-30T08:29:22;17.50;66.10
17659;DHT22;8948;51.534;8.262;2023-09-30T08:34:23;17.70;66.10
17659;DHT22;8948;51.534;8.262;2023-09-30T08:39:24;17.90;65.60
17659;DHT22;8948;51.534;8.262;2023-09-30T08:44:25;17.90;65.00
17659;DHT22;8948;51.534;8.262;2023-09-30T08:49:26;18.10;64.20
17659;DHT22;8948;51.534;8.262;2023-09-30T08:54:27;18.20;62.70
17659;DHT22;8948;51.534;8.262;2023-09-30T08:59:28;18.40;63.50
17659;DHT22;8948;51.534;8.262;2023-09-30T09:04:29;18.50;62.10
17659;DHT22;8948;51.534;8.262;2023-09-30T09:09:31;18.60;62.00
17659;DHT22;8948;51.534;8.262;2023-09-30T09:14:40;18.90;61.60
17659;DHT22;8948;51.534;8.262;2023-09-30T09:19:41;19.00;61.10
17659;DHT22;8948;51.534;8.262;2023-09-30T09:24:41;19.30;61.20
17659;DHT22;8948;51.534;8.262;2023-09-30T09:29:43;19.10;60.20
17659;DHT22;8948;51.534;8.262;2023-09-30T09:34:45;19.00;61.00
17659;DHT22;8948;51.534;8.262;2023-09-30T09:39:59;19.30;61.60
17659;DHT22;8948;51.534;8.262;2023-09-30T09:45:02;19.90;59.20
17659;DHT22;8948;51.534;8.262;2023-09-30T09:50:04;20.10;57.30
17659;DHT22;8948;51.534;8.262;2023-09-30T09:55:07;20.40;59.20
17659;DHT22;8948;51.534;8.262;2023-09-30T10:00:20;20.70;55.70
17659;DHT22;8948;51.534;8.262;2023-09-30T10:05:21;20.80;56.10
17659;DHT22;8948;51.534;8.262;2023-09-30T10:10:23;20.20;54.20
17659;DHT22;8948;51.534;8.262;2023-09-30T10:20:29;18.70;57.90
17659;DHT22;8948;51.534;8.262;2023-09-30T10:25:35;19.00;58.20
17659;DHT22;8948;51.534;8.262;2023-09-30T10:30:36;20.00;57.80
17659;DHT22;8948;51.534;8.262;2023-09-30T10:40:37;21.20;53.20
17659;DHT22;8948;51.534;8.262;2023-09-30T10:45:43;21.70;52.50
17659;DHT22;8948;51.534;8.262;2023-09-30T10:51:10;22.10;52.40
17659;DHT22;8948;51.534;8.262;2023-09-30T10:56:11;22.30;47.60
17659;DHT22;8948;51.534;8.262;2023-09-30T11:01:14;22.60;51.20
17659;DHT22;8948;51.534;8.262;2023-09-30T11:06:16;23.10;54.40
17659;DHT22;8948;51.534;8.262;2023-09-30T11:11:37;23.20;50.10
17659;DHT22;8948;51.534;8.262;2023-09-30T11:16:42;23.20;47.90
17659;DHT22;8948;51.534;8.262;2023-09-30T11:21:46;23.20;48.50
17659;DHT22;8948;51.534;8.262;2023-09-30T11:26:53;23.10;48.10
17659;DHT22;8948;51.534;8.262;2023-09-30T11:31:54;23.10;47.20
17659;DHT22;8948;51.534;8.262;2023-09-30T11:36:55;23.20;49.10
17659;DHT22;8948;51.534;8.262;2023-09-30T11:41:57;23.30;48.20
17659;DHT22;8948;51.534;8.262;2023-09-30T11:47:02;23.50;45.20
17659;DHT22;8948;51.534;8.262;2023-09-30T11:52:13;23.70;45.60
17659;DHT22;8948;51.534;8.262;2023-09-30T11:57:16;23.70;44.70
17659;DHT22;8948;51.534;8.262;2023-09-30T12:02:17;23.90;46.90
17659;DHT22;8948;51.534;8.262;2023-09-30T12:07:18;24.10;48.10
17659;DHT22;8948;51.534;8.262;2023-09-30T12:12:18;24.20;46.00
17659;DHT22;8948;51.534;8.262;2023-09-30T12:17:19;23.30;45.50
17659;DHT22;8948;51.534;8.262;2023-09-30T12:22:21;22.50;46.70
17659;DHT22;8948;51.534;8.262;2023-09-30T12:27:22;21.90;49.50
17659;DHT22;8948;51.534;8.262;2023-09-30T12:32:23;21.60;47.00
17659;DHT22;8948;51.534;8.262;2023-09-30T12:37:23;22.00;48.70
17659;DHT22;8948;51.534;8.262;2023-09-30T12:42:24;23.20;48.40
17659;DHT22;8948;51.534;8.262;2023-09-30T12:47:25;24.00;47.60
17659;DHT22;8948;51.534;8.262;2023-09-30T12:52:26;24.10;47.40
17659;DHT22;8948;51.534;8.262;2023-09-30T12:57:27;23.80;45.70
17659;DHT22;8948;51.534;8.262;2023-09-30T13:02:27;24.30;47.60
17659;DHT22;8948;51.534;8.262;2023-09-30T13:07:28;23.80;44.30
17659;DHT22;8948;51.534;8.262;2023-09-30T13:12:29;22.80;44.70
17659;DHT22;8948;51.534;8.262;2023-09-30T13:17:29;22.80;45.90
17659;DHT22;8948;51.534;8.262;2023-09-30T13:22:30;23.80;43.80
17659;DHT22;8948;51.534;8.262;2023-09-30T13:27:31;24.30;44.50
17659;DHT22;8948;51.534;8.262;2023-09-30T13:32:34;24.60;43.50
17659;DHT22;8948;51.534;8.262;2023-09-30T13:37:37;24.70;44.10
17659;DHT22;8948;51.534;8.262;2023-09-30T13:42:38;24.70;42.40
17659;DHT22;8948;51.534;8.262;2023-09-30T13:47:38;24.90;42.60
17659;DHT22;8948;51.534;8.262;2023-09-30T13:52:39;24.90;41.30
17659;DHT22;8948;51.534;8.262;2023-09-30T13:57:40;25.10;41.40
17659;DHT22;8948;51.534;8.262;2023-09-30T14:02:41;25.40;42.70
17659;DHT22;8948;51.534;8.262;2023-09-30T14:07:42;25.30;41.10
17659;DHT22;8948;51.534;8.262;2023-09-30T14:12:43;25.30;41.40
17659;DHT22;8948;51.534;8.262;2023-09-30T14:17:44;25.40;40.00
17659;DHT22;8948;51.534;8.262;2023-09-30T14:22:45;25.50;42.00
17659;DHT22;8948;51.534;8.262;2023-09-30T14:27:46;25.50;41.10
17659;DHT22;8948;51.534;8.262;2023-09-30T14:32:47;25.50;39.80
17659;DHT22;8948;51.534;8.262;2023-09-30T14:37:48;25.60;39.50
17659;DHT22;8948;51.534;8.262;2023-09-30T14:42:48;25.40;40.20
17659;DHT22;8948;51.534;8.262;2023-09-30T14:47:49;25.20;39.10
17659;DHT22;8948;51.534;8.262;2023-09-30T14:52:49;25.10;40.40
17659;DHT22;8948;51.534;8.262;2023-09-30T14:57:50;25.10;41.50
17659;DHT22;8948;51.534;8.262;2023-09-30T15:02:51;25.10;39.90
17659;DHT22;8948;51.534;8.262;2023-09-30T15:07:51;25.20;41.70
17659;DHT22;8948;51.534;8.262;2023-09-30T15:12:52;25.30;42.60
17659;DHT22;8948;51.534;8.262;2023-09-30T15:17:53;25.20;41.30
17659;DHT22;8948;51.534;8.262;2023-09-30T15:22:55;24.80;41.00
17659;DHT22;8948;51.534;8.262;2023-09-30T15:27:55;24.60;42.70
17659;DHT22;8948;51.534;8.262;2023-09-30T15:32:56;24.70;42.70
17659;DHT22;8948;51.534;8.262;2023-09-30T15:37:57;24.40;42.30
17659;DHT22;8948;51.534;8.262;2023-09-30T15:42:58;24.20;43.60
17659;DHT22;8948;51.534;8.262;2023-09-30T15:47:59;24.00;42.80
17659;DHT22;8948;51.534;8.262;2023-09-30T15:52:59;23.70;43.70
17659;DHT22;8948;51.534;8.262;2023-09-30T15:58:00;22.90;44.90
17659;DHT22;8948;51.534;8.262;2023-09-30T16:03:01;22.90;45.90
17659;DHT22;8948;51.534;8.262;2023-09-30T16:08:01;22.70;46.20
17659;DHT22;8948;51.534;8.262;2023-09-30T16:13:03;22.60;47.60
17659;DHT22;8948;51.534;8.262;2023-09-30T16:18:06;22.40;48.00
17659;DHT22;8948;51.534;8.262;2023-09-30T16:23:07;22.20;48.90
17659;DHT22;8948;51.534;8.262;2023-09-30T16:28:08;22.00;49.50
17659;DHT22;8948;51.534;8.262;2023-09-30T16:33:09;21.80;49.40
17659;DHT22;8948;51.534;8.262;2023-09-30T16:38:10;21.60;50.30
17659;DHT22;8948;51.534;8.262;2023-09-30T16:43:10;21.40;51.00
17659;DHT22;8948;51.534;8.262;2023-09-30T16:48:12;21.20;51.60
17659;DHT22;8948;51.534;8.262;2023-09-30T16:53:13;21.00;52.10
17659;DHT22;8948;51.534;8.262;2023-09-30T16:58:13;20.70;52.60
17659;DHT22;8948;51.534;8.262;2023-09-30T17:03:14;20.50;52.50
17659;DHT22;8948;51.534;8.262;2023-09-30T17:08:15;20.30;52.50
17659;DHT22;8948;51.534;8.262;2023-09-30T17:13:15;20.20;52.00
17659;DHT22;8948;51.534;8.262;2023-09-30T17:18:16;20.00;52.70
17659;DHT22;8948;51.534;8.262;2023-09-30T17:23:17;19.90;53.10
17659;DHT22;8948;51.534;8.262;2023-09-30T17:28:18;19.70;53.40
17659;DHT22;8948;51.534;8.262;2023-09-30T17:33:20;19.60;53.30
17659;DHT22;8948;51.534;8.262;2023-09-30T17:38:21;19.40;53.60
17659;DHT22;8948;51.534;8.262;2023-09-30T17:43:21;19.40;53.80
17659;DHT22;8948;51.534;8.262;2023-09-30T17:48:22;19.10;55.00
17659;DHT22;8948;51.534;8.262;2023-09-30T17:53:23;19.00;55.20
17659;DHT22;8948;51.534;8.262;2023-09-30T17:58:24;19.00;55.10
17659;DHT22;8948;51.534;8.262;2023-09-30T18:03:24;18.90;55.20
17659;DHT22;8948;51.534;8.262;2023-09-30T18:08:25;18.80;55.30
17659;DHT22;8948;51.534;8.262;2023-09-30T18:13:30;18.70;55.40
17659;DHT22;8948;51.534;8.262;2023-09-30T18:18:35;18.30;56.70
17659;DHT22;8948;51.534;8.262;2023-09-30T18:23:36;18.20;56.80
17659;DHT22;8948;51.534;8.262;2023-09-30T18:28:38;18.30;57.10
17659;DHT22;8948;51.534;8.262;2023-09-30T18:33:39;18.30;56.90
17659;DHT22;8948;51.534;8.262;2023-09-30T18:38:39;18.40;56.90
17659;DHT22;8948;51.534;8.262;2023-09-30T18:43:40;18.50;56.60
17659;DHT22;8948;51.534;8.262;2023-09-30T18:48:42;18.40;56.70
17659;DHT22;8948;51.534;8.262;2023-09-30T18:53:42;18.40;56.90
17659;DHT22;8948;51.534;8.262;2023-09-30T18:58:43;18.10;57.50
17659;DHT22;8948;51.534;8.262;2023-09-30T19:03:44;18.20;57.20
17659;DHT22;8948;51.534;8.262;2023-09-30T19:08:44;18.10;57.70
17659;DHT22;8948;51.534;8.262;2023-09-30T19:13:46;18.00;57.30
17659;DHT22;8948;51.534;8.262;2023-09-30T19:18:47;17.90;57.40
17659;DHT22;8948;51.534;8.262;2023-09-30T19:23:48;17.70;57.60
17659;DHT22;8948;51.534;8.262;2023-09-30T19:28:48;17.60;57.80
17659;DHT22;8948;51.534;8.262;2023-09-30T19:33:49;17.50;58.10
17659;DHT22;8948;51.534;8.262;2023-09-30T19:38:53;17.30;58.50
17659;DHT22;8948;51.534;8.262;2023-09-30T19:43:53;17.30;58.50
17659;DHT22;8948;51.534;8.262;2023-09-30T19:48:54;17.30;58.30
17659;DHT22;8948;51.534;8.262;2023-09-30T19:53:55;17.20;58.50
17659;DHT22;8948;51.534;8.262;2023-09-30T19:58:55;17.00;58.90
17659;DHT22;8948;51.534;8.262;2023-09-30T20:03:56;17.10;58.40
17659;DHT22;8948;51.534;8.262;2023-09-30T20:08:57;17.20;58.50
17659;DHT22;8948;51.534;8.262;2023-09-30T20:13:59;17.20;58.40
17659;DHT22;8948;51.534;8.262;2023-09-30T20:19:00;17.20;58.10
17659;DHT22;8948;51.534;8.262;2023-09-30T20:24:01;17.20;58.50
17659;DHT22;8948;51.534;8.262;2023-09-30T20:29:05;17.20;58.60
17659;DHT22;8948;51.534;8.262;2023-09-30T20:34:06;17.20;57.90
17659;DHT22;8948;51.534;8.262;2023-09-30T20:39:07;17.20;57.80
17659;DHT22;8948;51.534;8.262;2023-09-30T20:44:10;17.20;57.70
17659;DHT22;8948;51.534;8.262;2023-09-30T20:49:13;17.10;58.00
17659;DHT22;8948;51.534;8.262;2023-09-30T20:54:13;17.10;57.80
17659;DHT22;8948;51.534;8.262;2023-09-30T20:59:14;17.10;57.70
17659;DHT22;8948;51.534;8.262;2023-09-30T21:04:15;17.10;58.10
17659;DHT22;8948;51.534;8.262;2023-09-30T21:09:16;17.00;58.40
17659;DHT22;8948;51.534;8.262;2023-09-30T21:14:17;16.80;59.10
17659;DHT22;8948;51.534;8.262;2023-09-30T21:19:18;16.50;60.20
17659;DHT22;8948;51.534;8.262;2023-09-30T21:24:19;16.60;59.60
17659;DHT22;8948;51.534;8.262;2023-09-30T21:29:29;16.70;59.50
17659;DHT22;8948;51.534;8.262;2023-09-30T21:34:30;16.70;60.00
17659;DHT22;8948;51.534;8.262;2023-09-30T21:39:31;16.70;59.20
17659;DHT22;8948;51.534;8.262;2023-09-30T21:44:32;16.70;59.30
17659;DHT22;8948;51.534;8.262;2023-09-30T21:49:33;16.60;59.90
17659;DHT22;8948;51.534;8.262;2023-09-30T21:54:33;16.70;59.40
17659;DHT22;8948;51.534;8.262;2023-09-30T21:59:34;16.70;59.70
17659;DHT22;8948;51.534;8.262;2023-09-30T22:04:35;16.70;59.10
17659;DHT22;8948;51.534;8.262;2023-09-30T22:09:35;16.60;59.90
17659;DHT22;8948;51.534;8.262;2023-09-30T22:14:36;16.50;60.30
17659;DHT22;8948;51.534;8.262;2023-09-30T22:19:37;16.60;60.00
17659;DHT22;8948;51.534;8.262;2023-09-30T22:24:38;16.60;60.10
17659;DHT22;8948;51.534;8.262;2023-09-30T22:29:39;16.60;59.80
17659;DHT22;8948;51.534;8.262;2023-09-30T22:34:39;16.40;60.00
17659;DHT22;8948;51.534;8.262;2023-09-30T22:39:40;16.30;60.40
17659;DHT22;8948;51.534;8.262;2023-09-30T22:44:40;16.30;60.40
17659;DHT22;8948;51.534;8.262;2023-09-30T22:49:41;16.30;61.00
17659;DHT22;8948;51.534;8.262;2023-09-30T22:54:42;16.30;60.80
17659;DHT22;8948;51.534;8.262;2023-09-30T22:59:42;16.20;61.20
17659;DHT22;8948;51.534;8.262;2023-09-30T23:04:43;16.10;61.20
17659;DHT22;8948;51.534;8.262;2023-09-30T23:09:44;16.10;61.40
17659;DHT22;8948;51.534;8.262;2023-09-30T23:14:44;16.00;61.50
17659;DHT22;8948;51.534;8.262;2023-09-30T23:19:46;15.90;61.90
17659;DHT22;8948;51.534;8.262;2023-09-30T23:24:47;15.80;62.00
17659;DHT22;8948;51.534;8.262;2023-09-30T23:29:49;15.70;62.30
17659;DHT22;8948;51.534;8.262;2023-09-30T23:34:49;15.70;62.40
17659;DHT22;8948;51.534;8.262;2023-09-30T23:39:50;15.80;62.70
17659;DHT22;8948;51.534;8.262;2023-09-30T23:44:51;15.80;63.40
17659;DHT22;8948;51.534;8.262;2023-09-30T23:49:53;15.80;62.90
17659;DHT22;8948;51.534;8.262;2023-09-30T23:54:54;15.80;63.10
17659;DHT22;8948;51.534;8.262;2023-09-30T23:59:55;15.80;63.30
